sensor_id;sensor_type;location;lat;lon;timestamp;P1;durP1;ratioP1;P2;durP2;ratioP2
43224;SDS011;28834;48.720;9.208;2022-09-09T00:09:45;3.33;;;1.10;;
43224;SDS011;28834;48.720;9.208;2022-09-09T00:12:17;1.90;;;1.13;;
43224;SDS011;28834;48.720;9.208;2022-09-09T00:15:07;1.90;;;0.90;;
43224;SDS011;28834;48.720;9.208;2022-09-09T00:17:38;1.47;;;1.07;;
43224;SDS011;28834;48.720;9.208;2022-09-09T00:20:29;2.87;;;1.27;;
43224;SDS011;28834;48.720;9.208;2022-09-09T00:23:08;2.07;;;1.27;;
43224;SDS011;28834;48.720;9.208;2022-09-09T00:28:30;2.47;;;1.23;;
43224;SDS011;28834;48.720;9.208;2022-09-09T00:31:08;5.03;;;1.47;;
43224;SDS011;28834;48.720;9.208;2022-09-09T00:33:38;2.90;;;1.40;;
43224;SDS011;28834;48.720;9.208;2022-09-09T00:36:05;4.03;;;1.27;;
43224;SDS011;28834;48.720;9.208;2022-09-09T00:38:42;5.47;;;1.50;;
43224;SDS011;28834;48.720;9.208;2022-09-09T00:44:16;4.20;;;1.30;;
43224;SDS011;28834;48.720;9.208;2022-09-09T00:49:38;4.43;;;1.33;;
43224;SDS011;28834;48.720;9.208;2022-09-09T00:57:30;4.63;;;1.10;;
43224;SDS011;28834;48.720;9.208;2022-09-09T01:00:44;4.43;;;1.90;;
43224;SDS011;28834;48.720;9.208;2022-09-09T01:07:58;1.63;;;1.10;;
43224;SDS011;28834;48.720;9.208;2022-09-09T01:10:37;3.07;;;1.47;;
43224;SDS011;28834;48.720;9.208;2022-09-09T01:13:17;1.93;;;1.03;;
43224;SDS011;28834;48.720;9.208;2022-09-09T01:15:50;2.37;;;1.00;;
43224;SDS011;28834;48.720;9.208;2022-09-09T01:18:18;3.00;;;1.40;;
43224;SDS011;28834;48.720;9.208;2022-09-09T01:23:43;2.30;;;1.23;;
43224;SDS011;28834;48.720;9.208;2022-09-09T01:26:24;3.07;;;1.10;;
43224;SDS011;28834;48.720;9.208;2022-09-09T01:28:57;1.57;;;0.93;;
43224;SDS011;28834;48.720;9.208;2022-09-09T01:31:26;2.77;;;0.87;;
43224;SDS011;28834;48.720;9.208;2022-09-09T01:33:57;1.93;;;0.90;;
43224;SDS011;28834;48.720;9.208;2022-09-09T01:36:29;3.30;;;1.40;;
43224;SDS011;28834;48.720;9.208;2022-09-09T01:39:03;1.67;;;0.70;;
43224;SDS011;28834;48.720;9.208;2022-09-09T01:41:28;2.23;;;0.70;;
43224;SDS011;28834;48.720;9.208;2022-09-09T01:43:54;1.97;;;0.63;;
43224;SDS011;28834;48.720;9.208;2022-09-09T01:46:22;2.40;;;0.63;;
43224;SDS011;28834;48.720;9.208;2022-09-09T01:48:49;3.43;;;0.80;;
43224;SDS011;28834;48.720;9.208;2022-09-09T01:51:16;2.73;;;1.07;;
43224;SDS011;28834;48.720;9.208;2022-09-09T01:53:42;2.17;;;0.90;;
43224;SDS011;28834;48.720;9.208;2022-09-09T01:58:57;2.43;;;0.77;;
43224;SDS011;28834;48.720;9.208;2022-09-09T02:04:06;1.63;;;1.00;;
43224;SDS011;28834;48.720;9.208;2022-09-09T02:06:47;2.37;;;0.93;;
43224;SDS011;28834;48.720;9.208;2022-09-09T02:09:18;1.23;;;0.53;;
43224;SDS011;28834;48.720;9.208;2022-09-09T02:11:46;2.20;;;0.83;;
43224;SDS011;28834;48.720;9.208;2022-09-09T02:14:16;0.80;;;0.60;;
43224;SDS011;28834;48.720;9.208;2022-09-09T02:16:49;2.60;;;0.90;;
43224;SDS011;28834;48.720;9.208;2022-09-09T02:19:21;1.00;;;0.70;;
43224;SDS011;28834;48.720;9.208;2022-09-09T02:21:58;3.30;;;0.70;;
43224;SDS011;28834;48.720;9.208;2022-09-09T02:24:26;1.10;;;0.60;;
43224;SDS011;28834;48.720;9.208;2022-09-09T02:26:54;1.97;;;1.10;;
43224;SDS011;28834;48.720;9.208;2022-09-09T02:29:30;0.87;;;0.60;;
43224;SDS011;28834;48.720;9.208;2022-09-09T02:32:02;2.40;;;0.90;;
43224;SDS011;28834;48.720;9.208;2022-09-09T02:34:31;3.93;;;0.70;;
43224;SDS011;28834;48.720;9.208;2022-09-09T02:37:04;1.93;;;0.90;;
43224;SDS011;28834;48.720;9.208;2022-09-09T02:39:33;2.17;;;0.83;;
43224;SDS011;28834;48.720;9.208;2022-09-09T02:41:58;2.43;;;0.80;;
43224;SDS011;28834;48.720;9.208;2022-09-09T02:44:24;1.30;;;0.70;;
43224;SDS011;28834;48.720;9.208;2022-09-09T02:52:15;2.13;;;0.80;;
43224;SDS011;28834;48.720;9.208;2022-09-09T02:55:07;4.47;;;0.80;;
43224;SDS011;28834;48.720;9.208;2022-09-09T02:57:41;1.17;;;0.60;;
43224;SDS011;28834;48.720;9.208;2022-09-09T03:00:08;3.13;;;0.77;;
43224;SDS011;28834;48.720;9.208;2022-09-09T03:02:36;1.97;;;0.87;;
43224;SDS011;28834;48.720;9.208;2022-09-09T03:05:02;3.80;;;1.00;;
43224;SDS011;28834;48.720;9.208;2022-09-09T03:07:28;2.63;;;0.73;;
43224;SDS011;28834;48.720;9.208;2022-09-09T03:09:53;3.03;;;1.10;;
43224;SDS011;28834;48.720;9.208;2022-09-09T03:12:19;0.70;;;0.70;;
43224;SDS011;28834;48.720;9.208;2022-09-09T03:14:45;2.90;;;1.00;;
43224;SDS011;28834;48.720;9.208;2022-09-09T03:17:11;2.20;;;0.97;;
43224;SDS011;28834;48.720;9.208;2022-09-09T03:19:37;2.40;;;0.80;;
43224;SDS011;28834;48.720;9.208;2022-09-09T03:22:04;1.67;;;0.80;;
43224;SDS011;28834;48.720;9.208;2022-09-09T03:24:29;1.50;;;0.73;;
43224;SDS011;28834;48.720;9.208;2022-09-09T03:26:55;1.43;;;0.80;;
43224;SDS011;28834;48.720;9.208;2022-09-09T03:29:20;1.97;;;1.17;;
43224;SDS011;28834;48.720;9.208;2022-09-09T03:31:46;3.37;;;0.87;;
43224;SDS011;28834;48.720;9.208;2022-09-09T03:34:12;1.80;;;0.70;;
43224;SDS011;28834;48.720;9.208;2022-09-09T03:36:38;1.97;;;0.87;;
43224;SDS011;28834;48.720;9.208;2022-09-09T03:39:06;1.93;;;0.90;;
43224;SDS011;28834;48.720;9.208;2022-09-09T03:41:31;2.23;;;1.00;;
43224;SDS011;28834;48.720;9.208;2022-09-09T03:43:57;3.33;;;1.23;;
43224;SDS011;28834;48.720;9.208;2022-09-09T03:46:23;1.57;;;0.70;;
43224;SDS011;28834;48.720;9.208;2022-09-09T03:48:50;3.00;;;1.27;;
43224;SDS011;28834;48.720;9.208;2022-09-09T03:51:17;3.53;;;0.97;;
43224;SDS011;28834;48.720;9.208;2022-09-09T03:53:43;1.70;;;0.90;;
43224;SDS011;28834;48.720;9.208;2022-09-09T03:56:09;3.63;;;1.00;;
43224;SDS011;28834;48.720;9.208;2022-09-09T03:58:35;3.17;;;0.90;;
43224;SDS011;28834;48.720;9.208;2022-09-09T04:01:06;3.70;;;1.10;;
43224;SDS011;28834;48.720;9.208;2022-09-09T04:03:38;2.63;;;1.10;;
43224;SDS011;28834;48.720;9.208;2022-09-09T04:06:04;1.73;;;1.30;;
43224;SDS011;28834;48.720;9.208;2022-09-09T04:08:31;5.87;;;0.97;;
43224;SDS011;28834;48.720;9.208;2022-09-09T04:10:57;3.93;;;1.37;;
43224;SDS011;28834;48.720;9.208;2022-09-09T04:13:24;1.60;;;0.90;;
43224;SDS011;28834;48.720;9.208;2022-09-09T04:15:53;3.47;;;0.93;;
43224;SDS011;28834;48.720;9.208;2022-09-09T04:18:21;1.93;;;0.97;;
43224;SDS011;28834;48.720;9.208;2022-09-09T04:20:47;2.47;;;1.00;;
43224;SDS011;28834;48.720;9.208;2022-09-09T04:23:15;3.73;;;1.00;;
43224;SDS011;28834;48.720;9.208;2022-09-09T04:25:47;3.17;;;0.90;;
43224;SDS011;28834;48.720;9.208;2022-09-09T04:28:15;2.13;;;1.00;;
43224;SDS011;28834;48.720;9.208;2022-09-09T04:30:42;2.63;;;1.30;;
43224;SDS011;28834;48.720;9.208;2022-09-09T04:33:08;3.03;;;0.97;;
43224;SDS011;28834;48.720;9.208;2022-09-09T04:35:35;2.10;;;1.10;;
43224;SDS011;28834;48.720;9.208;2022-09-09T04:38:01;1.57;;;0.80;;
43224;SDS011;28834;48.720;9.208;2022-09-09T04:40:30;3.63;;;1.00;;
43224;SDS011;28834;48.720;9.208;2022-09-09T04:42:59;4.67;;;1.43;;
43224;SDS011;28834;48.720;9.208;2022-09-09T04:45:26;3.37;;;1.30;;
43224;SDS011;28834;48.720;9.208;2022-09-09T04:47:52;2.87;;;1.10;;
43224;SDS011;28834;48.720;9.208;2022-09-09T04:50:18;5.73;;;1.10;;
43224;SDS011;28834;48.720;9.208;2022-09-09T04:52:44;1.90;;;0.93;;
43224;SDS011;28834;48.720;9.208;2022-09-09T04:55:10;1.10;;;0.77;;
43224;SDS011;28834;48.720;9.208;2022-09-09T04:57:37;3.37;;;1.20;;
43224;SDS011;28834;48.720;9.208;2022-09-09T05:00:04;3.47;;;0.80;;
43224;SDS011;28834;48.720;9.208;2022-09-09T05:02:30;2.13;;;1.13;;
43224;SDS011;28834;48.720;9.208;2022-09-09T05:04:55;2.93;;;0.90;;
43224;SDS011;28834;48.720;9.208;2022-09-09T05:07:21;2.80;;;0.83;;
43224;SDS011;28834;48.720;9.208;2022-09-09T05:09:46;1.60;;;1.10;;
43224;SDS011;28834;48.720;9.208;2022-09-09T05:12:14;1.53;;;0.90;;
43224;SDS011;28834;48.720;9.208;2022-09-09T05:14:41;2.90;;;0.90;;
43224;SDS011;28834;48.720;9.208;2022-09-09T05:17:07;3.27;;;1.20;;
43224;SDS011;28834;48.720;9.208;2022-09-09T05:19:33;3.77;;;1.20;;
43224;SDS011;28834;48.720;9.208;2022-09-09T05:21:58;2.60;;;1.00;;
43224;SDS011;28834;48.720;9.208;2022-09-09T05:24:26;3.03;;;1.10;;
43224;SDS011;28834;48.720;9.208;2022-09-09T05:26:51;3.57;;;1.43;;
43224;SDS011;28834;48.720;9.208;2022-09-09T05:29:17;3.43;;;1.43;;
43224;SDS011;28834;48.720;9.208;2022-09-09T05:31:44;3.30;;;1.10;;
43224;SDS011;28834;48.720;9.208;2022-09-09T05:34:10;1.50;;;0.87;;
43224;SDS011;28834;48.720;9.208;2022-09-09T05:36:36;2.53;;;0.77;;
43224;SDS011;28834;48.720;9.208;2022-09-09T05:39:02;3.83;;;1.50;;
43224;SDS011;28834;48.720;9.208;2022-09-09T05:41:28;1.80;;;0.97;;
43224;SDS011;28834;48.720;9.208;2022-09-09T05:43:54;2.43;;;0.80;;
43224;SDS011;28834;48.720;9.208;2022-09-09T05:46:21;4.03;;;1.20;;
43224;SDS011;28834;48.720;9.208;2022-09-09T05:48:49;4.77;;;1.80;;
43224;SDS011;28834;48.720;9.208;2022-09-09T05:51:17;5.33;;;1.33;;
43224;SDS011;28834;48.720;9.208;2022-09-09T05:53:46;4.40;;;1.20;;
43224;SDS011;28834;48.720;9.208;2022-09-09T05:58:40;3.53;;;0.77;;
43224;SDS011;28834;48.720;9.208;2022-09-09T06:01:10;5.03;;;1.10;;
43224;SDS011;28834;48.720;9.208;2022-09-09T06:03:41;4.97;;;1.30;;
43224;SDS011;28834;48.720;9.208;2022-09-09T06:06:08;1.80;;;0.70;;
43224;SDS011;28834;48.720;9.208;2022-09-09T06:08:37;2.23;;;0.80;;
43224;SDS011;28834;48.720;9.208;2022-09-09T06:11:05;2.53;;;1.03;;
43224;SDS011;28834;48.720;9.208;2022-09-09T06:13:32;2.47;;;0.90;;
43224;SDS011;28834;48.720;9.208;2022-09-09T06:15:58;3.37;;;1.10;;
43224;SDS011;28834;48.720;9.208;2022-09-09T06:18:24;3.50;;;1.13;;
43224;SDS011;28834;48.720;9.208;2022-09-09T06:20:57;3.87;;;0.90;;
43224;SDS011;28834;48.720;9.208;2022-09-09T06:23:29;2.87;;;0.70;;
43224;SDS011;28834;48.720;9.208;2022-09-09T06:28:44;3.03;;;1.27;;
43224;SDS011;28834;48.720;9.208;2022-09-09T06:31:12;3.67;;;0.80;;
43224;SDS011;28834;48.720;9.208;2022-09-09T06:33:39;2.60;;;0.90;;
43224;SDS011;28834;48.720;9.208;2022-09-09T06:36:16;3.77;;;1.00;;
43224;SDS011;28834;48.720;9.208;2022-09-09T06:38:43;2.90;;;1.30;;
43224;SDS011;28834;48.720;9.208;2022-09-09T06:41:09;3.07;;;1.17;;
43224;SDS011;28834;48.720;9.208;2022-09-09T06:43:37;1.23;;;0.53;;
43224;SDS011;28834;48.720;9.208;2022-09-09T06:46:03;2.03;;;0.63;;
43224;SDS011;28834;48.720;9.208;2022-09-09T06:48:31;4.23;;;0.93;;
43224;SDS011;28834;48.720;9.208;2022-09-09T06:53:30;2.10;;;0.70;;
43224;SDS011;28834;48.720;9.208;2022-09-09T06:55:58;2.07;;;1.07;;
43224;SDS011;28834;48.720;9.208;2022-09-09T06:58:26;2.03;;;0.83;;
43224;SDS011;28834;48.720;9.208;2022-09-09T07:00:51;1.80;;;0.70;;
43224;SDS011;28834;48.720;9.208;2022-09-09T07:03:17;1.83;;;0.97;;
43224;SDS011;28834;48.720;9.208;2022-09-09T07:05:43;2.87;;;0.90;;
43224;SDS011;28834;48.720;9.208;2022-09-09T07:08:18;4.67;;;0.73;;
43224;SDS011;28834;48.720;9.208;2022-09-09T07:10:43;2.13;;;1.03;;
43224;SDS011;28834;48.720;9.208;2022-09-09T07:13:09;3.67;;;1.10;;
43224;SDS011;28834;48.720;9.208;2022-09-09T07:15:35;2.53;;;0.90;;
43224;SDS011;28834;48.720;9.208;2022-09-09T07:18:00;4.53;;;1.10;;
43224;SDS011;28834;48.720;9.208;2022-09-09T07:20:27;2.23;;;0.70;;
43224;SDS011;28834;48.720;9.208;2022-09-09T07:22:54;1.20;;;0.80;;
43224;SDS011;28834;48.720;9.208;2022-09-09T07:25:20;4.30;;;1.13;;
43224;SDS011;28834;48.720;9.208;2022-09-09T07:27:46;0.90;;;0.50;;
43224;SDS011;28834;48.720;9.208;2022-09-09T07:30:12;1.40;;;0.73;;
43224;SDS011;28834;48.720;9.208;2022-09-09T07:32:38;1.57;;;0.80;;
43224;SDS011;28834;48.720;9.208;2022-09-09T07:35:04;3.27;;;1.00;;
43224;SDS011;28834;48.720;9.208;2022-09-09T07:37:30;2.97;;;0.87;;
43224;SDS011;28834;48.720;9.208;2022-09-09T07:39:55;2.07;;;0.70;;
43224;SDS011;28834;48.720;9.208;2022-09-09T07:42:21;2.53;;;0.77;;
43224;SDS011;28834;48.720;9.208;2022-09-09T07:44:47;2.90;;;0.80;;
43224;SDS011;28834;48.720;9.208;2022-09-09T07:47:12;2.70;;;1.40;;
43224;SDS011;28834;48.720;9.208;2022-09-09T07:49:38;1.83;;;0.67;;
43224;SDS011;28834;48.720;9.208;2022-09-09T07:52:03;3.47;;;0.90;;
43224;SDS011;28834;48.720;9.208;2022-09-09T07:54:29;2.67;;;0.70;;
43224;SDS011;28834;48.720;9.208;2022-09-09T07:56:55;2.93;;;0.80;;
43224;SDS011;28834;48.720;9.208;2022-09-09T07:59:20;2.70;;;0.60;;
43224;SDS011;28834;48.720;9.208;2022-09-09T08:01:47;3.17;;;1.07;;
43224;SDS011;28834;48.720;9.208;2022-09-09T08:04:16;1.83;;;0.70;;
43224;SDS011;28834;48.720;9.208;2022-09-09T08:06:46;6.67;;;1.03;;
43224;SDS011;28834;48.720;9.208;2022-09-09T08:09:14;2.40;;;0.70;;
43224;SDS011;28834;48.720;9.208;2022-09-09T08:11:40;1.20;;;0.63;;
43224;SDS011;28834;48.720;9.208;2022-09-09T08:14:07;2.23;;;0.80;;
43224;SDS011;28834;48.720;9.208;2022-09-09T08:16:35;2.83;;;0.70;;
43224;SDS011;28834;48.720;9.208;2022-09-09T08:19:03;2.77;;;0.87;;
43224;SDS011;28834;48.720;9.208;2022-09-09T08:21:30;2.43;;;0.73;;
43224;SDS011;28834;48.720;9.208;2022-09-09T08:23:59;2.40;;;0.70;;
43224;SDS011;28834;48.720;9.208;2022-09-09T08:26:30;1.20;;;0.53;;
43224;SDS011;28834;48.720;9.208;2022-09-09T08:28:57;3.63;;;1.10;;
43224;SDS011;28834;48.720;9.208;2022-09-09T08:31:28;2.17;;;0.67;;
43224;SDS011;28834;48.720;9.208;2022-09-09T08:33:56;3.03;;;0.60;;
43224;SDS011;28834;48.720;9.208;2022-09-09T08:36:24;2.43;;;0.70;;
43224;SDS011;28834;48.720;9.208;2022-09-09T08:38:52;1.83;;;0.70;;
43224;SDS011;28834;48.720;9.208;2022-09-09T08:41:28;1.47;;;0.60;;
43224;SDS011;28834;48.720;9.208;2022-09-09T08:52:25;3.77;;;0.73;;
43224;SDS011;28834;48.720;9.208;2022-09-09T08:55:10;1.43;;;0.57;;
43224;SDS011;28834;48.720;9.208;2022-09-09T08:57:51;3.83;;;1.00;;
43224;SDS011;28834;48.720;9.208;2022-09-09T09:00:19;3.30;;;0.57;;
43224;SDS011;28834;48.720;9.208;2022-09-09T09:03:05;2.67;;;0.63;;
43224;SDS011;28834;48.720;9.208;2022-09-09T09:05:44;3.90;;;0.90;;
43224;SDS011;28834;48.720;9.208;2022-09-09T09:11:03;4.17;;;0.60;;
43224;SDS011;28834;48.720;9.208;2022-09-09T09:19:11;2.30;;;0.53;;
43224;SDS011;28834;48.720;9.208;2022-09-09T09:21:41;1.70;;;0.97;;
43224;SDS011;28834;48.720;9.208;2022-09-09T09:24:19;1.77;;;0.60;;
43224;SDS011;28834;48.720;9.208;2022-09-09T09:26:47;1.50;;;0.73;;
43224;SDS011;28834;48.720;9.208;2022-09-09T09:29:14;2.73;;;1.07;;
43224;SDS011;28834;48.720;9.208;2022-09-09T09:31:48;5.07;;;0.87;;
43224;SDS011;28834;48.720;9.208;2022-09-09T09:34:19;1.50;;;0.40;;
43224;SDS011;28834;48.720;9.208;2022-09-09T09:36:46;3.63;;;0.50;;
43224;SDS011;28834;48.720;9.208;2022-09-09T09:39:39;1.47;;;0.37;;
43224;SDS011;28834;48.720;9.208;2022-09-09T09:42:12;2.03;;;0.60;;
43224;SDS011;28834;48.720;9.208;2022-09-09T09:44:40;2.33;;;0.40;;
43224;SDS011;28834;48.720;9.208;2022-09-09T09:49:55;3.20;;;0.70;;
43224;SDS011;28834;48.720;9.208;2022-09-09T09:52:28;2.20;;;0.63;;
43224;SDS011;28834;48.720;9.208;2022-09-09T09:54:55;1.90;;;0.40;;
43224;SDS011;28834;48.720;9.208;2022-09-09T09:57:27;1.17;;;0.50;;
43224;SDS011;28834;48.720;9.208;2022-09-09T10:00:02;2.10;;;0.87;;
43224;SDS011;28834;48.720;9.208;2022-09-09T10:02:39;1.60;;;0.50;;
43224;SDS011;28834;48.720;9.208;2022-09-09T10:05:15;1.57;;;0.43;;
43224;SDS011;28834;48.720;9.208;2022-09-09T10:07:41;2.13;;;0.70;;
43224;SDS011;28834;48.720;9.208;2022-09-09T10:10:15;1.53;;;0.47;;
43224;SDS011;28834;48.720;9.208;2022-09-09T10:12:59;2.30;;;0.50;;
43224;SDS011;28834;48.720;9.208;2022-09-09T10:21:03;2.70;;;0.70;;
43224;SDS011;28834;48.720;9.208;2022-09-09T10:35:12;3.00;;;0.60;;
43224;SDS011;28834;48.720;9.208;2022-09-09T10:38:11;1.50;;;0.57;;
43224;SDS011;28834;48.720;9.208;2022-09-09T10:43:29;1.37;;;0.70;;
43224;SDS011;28834;48.720;9.208;2022-09-09T10:48:56;3.40;;;0.90;;
43224;SDS011;28834;48.720;9.208;2022-09-09T10:54:31;0.97;;;0.57;;
43224;SDS011;28834;48.720;9.208;2022-09-09T10:57:39;1.40;;;0.90;;
43224;SDS011;28834;48.720;9.208;2022-09-09T11:00:03;1.80;;;0.60;;
43224;SDS011;28834;48.720;9.208;2022-09-09T11:02:32;4.97;;;0.60;;
43224;SDS011;28834;48.720;9.208;2022-09-09T11:05:01;3.83;;;0.97;;
43224;SDS011;28834;48.720;9.208;2022-09-09T11:07:35;2.13;;;0.87;;
43224;SDS011;28834;48.720;9.208;2022-09-09T11:10:32;2.13;;;0.60;;
43224;SDS011;28834;48.720;9.208;2022-09-09T11:12:57;3.03;;;0.73;;
43224;SDS011;28834;48.720;9.208;2022-09-09T11:15:35;1.73;;;0.70;;
43224;SDS011;28834;48.720;9.208;2022-09-09T11:18:06;2.13;;;0.60;;
43224;SDS011;28834;48.720;9.208;2022-09-09T11:20:39;2.43;;;0.80;;
43224;SDS011;28834;48.720;9.208;2022-09-09T11:23:09;1.87;;;0.80;;
43224;SDS011;28834;48.720;9.208;2022-09-09T11:25:55;2.60;;;0.80;;
43224;SDS011;28834;48.720;9.208;2022-09-09T11:31:14;1.17;;;0.60;;
43224;SDS011;28834;48.720;9.208;2022-09-09T11:33:58;2.00;;;0.60;;
43224;SDS011;28834;48.720;9.208;2022-09-09T11:41:49;1.37;;;0.50;;
43224;SDS011;28834;48.720;9.208;2022-09-09T11:44:19;2.47;;;0.70;;
43224;SDS011;28834;48.720;9.208;2022-09-09T11:46:53;2.40;;;0.40;;
43224;SDS011;28834;48.720;9.208;2022-09-09T11:50:06;1.63;;;0.50;;
43224;SDS011;28834;48.720;9.208;2022-09-09T11:54:47;0.03;;;0.00;;
43224;SDS011;28834;48.720;9.208;2022-09-09T11:57:22;0.93;;;0.33;;
43224;SDS011;28834;48.720;9.208;2022-09-09T11:59:51;3.43;;;0.53;;
43224;SDS011;28834;48.720;9.208;2022-09-09T12:07:37;0.50;;;0.00;;
43224;SDS011;28834;48.720;9.208;2022-09-09T12:10:20;1.03;;;0.10;;
43224;SDS011;28834;48.720;9.208;2022-09-09T12:12:52;1.10;;;0.10;;
43224;SDS011;28834;48.720;9.208;2022-09-09T12:17:49;0.27;;;0.00;;
43224;SDS011;28834;48.720;9.208;2022-09-09T12:20:18;2.57;;;0.20;;
43224;SDS011;28834;48.720;9.208;2022-09-09T12:28:21;0.67;;;0.10;;
43224;SDS011;28834;48.720;9.208;2022-09-09T12:33:36;2.00;;;0.27;;
43224;SDS011;28834;48.720;9.208;2022-09-09T12:36:11;0.63;;;0.27;;
43224;SDS011;28834;48.720;9.208;2022-09-09T12:38:41;0.77;;;0.30;;
43224;SDS011;28834;48.720;9.208;2022-09-09T12:41:17;1.13;;;0.23;;
43224;SDS011;28834;48.720;9.208;2022-09-09T12:43:45;1.03;;;0.17;;
43224;SDS011;28834;48.720;9.208;2022-09-09T12:46:14;0.93;;;0.07;;
43224;SDS011;28834;48.720;9.208;2022-09-09T12:48:46;0.67;;;0.17;;
43224;SDS011;28834;48.720;9.208;2022-09-09T12:51:19;2.97;;;0.33;;
43224;SDS011;28834;48.720;9.208;2022-09-09T12:53:51;1.63;;;0.50;;
43224;SDS011;28834;48.720;9.208;2022-09-09T12:56:27;1.27;;;0.33;;
43224;SDS011;28834;48.720;9.208;2022-09-09T12:58:56;4.30;;;0.20;;
43224;SDS011;28834;48.720;9.208;2022-09-09T13:01:30;2.07;;;0.40;;
43224;SDS011;28834;48.720;9.208;2022-09-09T13:03:58;1.10;;;0.30;;
43224;SDS011;28834;48.720;9.208;2022-09-09T13:06:30;1.43;;;0.63;;
43224;SDS011;28834;48.720;9.208;2022-09-09T13:08:58;1.47;;;0.30;;
43224;SDS011;28834;48.720;9.208;2022-09-09T13:11:27;1.20;;;0.20;;
43224;SDS011;28834;48.720;9.208;2022-09-09T13:14:16;0.67;;;0.20;;
43224;SDS011;28834;48.720;9.208;2022-09-09T13:16:54;0.40;;;0.20;;
43224;SDS011;28834;48.720;9.208;2022-09-09T13:19:22;2.17;;;0.37;;
43224;SDS011;28834;48.720;9.208;2022-09-09T13:21:50;4.10;;;0.40;;
43224;SDS011;28834;48.720;9.208;2022-09-09T13:24:24;3.00;;;0.40;;
43224;SDS011;28834;48.720;9.208;2022-09-09T13:27:03;0.97;;;0.27;;
43224;SDS011;28834;48.720;9.208;2022-09-09T13:29:30;3.20;;;0.30;;
43224;SDS011;28834;48.720;9.208;2022-09-09T13:32:15;1.10;;;0.20;;
43224;SDS011;28834;48.720;9.208;2022-09-09T13:34:50;1.63;;;0.40;;
43224;SDS011;28834;48.720;9.208;2022-09-09T13:37:25;1.13;;;0.20;;
43224;SDS011;28834;48.720;9.208;2022-09-09T13:40:06;4.07;;;0.30;;
43224;SDS011;28834;48.720;9.208;2022-09-09T13:42:41;0.70;;;0.20;;
43224;SDS011;28834;48.720;9.208;2022-09-09T13:45:14;1.47;;;0.33;;
43224;SDS011;28834;48.720;9.208;2022-09-09T13:47:45;2.13;;;0.30;;
43224;SDS011;28834;48.720;9.208;2022-09-09T13:50:26;4.93;;;0.20;;
43224;SDS011;28834;48.720;9.208;2022-09-09T13:52:54;1.33;;;0.03;;
43224;SDS011;28834;48.720;9.208;2022-09-09T13:55:23;2.13;;;0.20;;
43224;SDS011;28834;48.720;9.208;2022-09-09T13:57:54;1.47;;;0.40;;
43224;SDS011;28834;48.720;9.208;2022-09-09T14:00:25;0.87;;;0.20;;
43224;SDS011;28834;48.720;9.208;2022-09-09T14:02:51;2.23;;;0.50;;
43224;SDS011;28834;48.720;9.208;2022-09-09T14:05:17;1.60;;;0.40;;
43224;SDS011;28834;48.720;9.208;2022-09-09T14:07:43;1.97;;;0.47;;
43224;SDS011;28834;48.720;9.208;2022-09-09T14:10:10;1.47;;;0.30;;
43224;SDS011;28834;48.720;9.208;2022-09-09T14:12:36;2.17;;;0.40;;
43224;SDS011;28834;48.720;9.208;2022-09-09T14:15:03;2.13;;;0.20;;
43224;SDS011;28834;48.720;9.208;2022-09-09T14:17:30;1.30;;;0.37;;
43224;SDS011;28834;48.720;9.208;2022-09-09T14:19:56;1.50;;;0.63;;
43224;SDS011;28834;48.720;9.208;2022-09-09T14:22:22;0.73;;;0.10;;
43224;SDS011;28834;48.720;9.208;2022-09-09T14:24:48;1.73;;;0.20;;
43224;SDS011;28834;48.720;9.208;2022-09-09T14:27:14;2.10;;;0.30;;
43224;SDS011;28834;48.720;9.208;2022-09-09T14:29:40;0.97;;;0.37;;
43224;SDS011;28834;48.720;9.208;2022-09-09T14:32:05;2.10;;;0.67;;
43224;SDS011;28834;48.720;9.208;2022-09-09T14:34:31;0.83;;;0.30;;
43224;SDS011;28834;48.720;9.208;2022-09-09T14:37:00;1.17;;;0.10;;
43224;SDS011;28834;48.720;9.208;2022-09-09T14:39:25;0.83;;;0.20;;
43224;SDS011;28834;48.720;9.208;2022-09-09T14:41:51;2.63;;;0.40;;
43224;SDS011;28834;48.720;9.208;2022-09-09T14:44:17;0.83;;;0.10;;
43224;SDS011;28834;48.720;9.208;2022-09-09T14:46:43;1.87;;;0.50;;
43224;SDS011;28834;48.720;9.208;2022-09-09T14:49:08;1.30;;;0.40;;
43224;SDS011;28834;48.720;9.208;2022-09-09T14:51:35;1.07;;;0.23;;
43224;SDS011;28834;48.720;9.208;2022-09-09T14:54:01;2.97;;;0.30;;
43224;SDS011;28834;48.720;9.208;2022-09-09T14:56:28;2.40;;;0.30;;
43224;SDS011;28834;48.720;9.208;2022-09-09T14:58:55;1.50;;;0.20;;
43224;SDS011;28834;48.720;9.208;2022-09-09T15:01:23;2.63;;;0.40;;
43224;SDS011;28834;48.720;9.208;2022-09-09T15:03:51;1.17;;;0.20;;
43224;SDS011;28834;48.720;9.208;2022-09-09T15:06:19;3.50;;;0.47;;
43224;SDS011;28834;48.720;9.208;2022-09-09T15:08:45;1.90;;;0.20;;
43224;SDS011;28834;48.720;9.208;2022-09-09T15:11:12;2.13;;;1.03;;
43224;SDS011;28834;48.720;9.208;2022-09-09T15:13:40;3.63;;;0.40;;
43224;SDS011;28834;48.720;9.208;2022-09-09T15:16:08;2.30;;;0.20;;
43224;SDS011;28834;48.720;9.208;2022-09-09T15:18:41;0.40;;;0.20;;
43224;SDS011;28834;48.720;9.208;2022-09-09T15:21:13;2.30;;;0.40;;
43224;SDS011;28834;48.720;9.208;2022-09-09T15:23:41;1.97;;;0.40;;
43224;SDS011;28834;48.720;9.208;2022-09-09T15:26:07;1.37;;;0.27;;
43224;SDS011;28834;48.720;9.208;2022-09-09T15:28:34;1.27;;;0.40;;
43224;SDS011;28834;48.720;9.208;2022-09-09T15:33:33;1.40;;;0.40;;
43224;SDS011;28834;48.720;9.208;2022-09-09T15:36:01;3.97;;;0.70;;
43224;SDS011;28834;48.720;9.208;2022-09-09T15:38:46;4.67;;;2.10;;
43224;SDS011;28834;48.720;9.208;2022-09-09T15:41:13;2.40;;;0.50;;
43224;SDS011;28834;48.720;9.208;2022-09-09T15:43:43;1.10;;;0.30;;
43224;SDS011;28834;48.720;9.208;2022-09-09T15:46:59;1.60;;;0.80;;
43224;SDS011;28834;48.720;9.208;2022-09-09T15:51:39;3.17;;;0.67;;
43224;SDS011;28834;48.720;9.208;2022-09-09T15:54:07;1.47;;;0.30;;
43224;SDS011;28834;48.720;9.208;2022-09-09T15:56:34;1.47;;;0.63;;
43224;SDS011;28834;48.720;9.208;2022-09-09T15:58:59;1.73;;;0.30;;
43224;SDS011;28834;48.720;9.208;2022-09-09T16:01:28;3.03;;;0.30;;
43224;SDS011;28834;48.720;9.208;2022-09-09T16:03:55;3.00;;;0.30;;
43224;SDS011;28834;48.720;9.208;2022-09-09T16:06:21;1.53;;;0.33;;
43224;SDS011;28834;48.720;9.208;2022-09-09T16:08:49;1.23;;;0.40;;
43224;SDS011;28834;48.720;9.208;2022-09-09T16:11:17;1.87;;;0.20;;
43224;SDS011;28834;48.720;9.208;2022-09-09T16:13:45;3.40;;;0.50;;
43224;SDS011;28834;48.720;9.208;2022-09-09T16:16:13;1.33;;;0.30;;
43224;SDS011;28834;48.720;9.208;2022-09-09T16:18:41;1.20;;;0.10;;
43224;SDS011;28834;48.720;9.208;2022-09-09T16:21:13;0.63;;;0.23;;
43224;SDS011;28834;48.720;9.208;2022-09-09T16:23:40;1.47;;;0.60;;
43224;SDS011;28834;48.720;9.208;2022-09-09T16:26:05;1.97;;;0.30;;
43224;SDS011;28834;48.720;9.208;2022-09-09T16:28:31;3.00;;;0.40;;
43224;SDS011;28834;48.720;9.208;2022-09-09T16:30:56;1.73;;;0.60;;
43224;SDS011;28834;48.720;9.208;2022-09-09T16:33:26;1.87;;;0.30;;
43224;SDS011;28834;48.720;9.208;2022-09-09T16:35:51;2.63;;;0.60;;
43224;SDS011;28834;48.720;9.208;2022-09-09T16:38:17;1.67;;;0.30;;
43224;SDS011;28834;48.720;9.208;2022-09-09T16:40:42;2.10;;;0.40;;
43224;SDS011;28834;48.720;9.208;2022-09-09T16:43:08;1.00;;;0.20;;
43224;SDS011;28834;48.720;9.208;2022-09-09T16:45:43;2.43;;;0.40;;
43224;SDS011;28834;48.720;9.208;2022-09-09T16:48:10;1.70;;;0.37;;
43224;SDS011;28834;48.720;9.208;2022-09-09T16:50:37;2.67;;;0.50;;
43224;SDS011;28834;48.720;9.208;2022-09-09T16:53:04;0.93;;;0.23;;
43224;SDS011;28834;48.720;9.208;2022-09-09T16:55:31;0.87;;;0.40;;
43224;SDS011;28834;48.720;9.208;2022-09-09T16:57:57;1.03;;;0.07;;
43224;SDS011;28834;48.720;9.208;2022-09-09T17:00:22;0.30;;;0.17;;
43224;SDS011;28834;48.720;9.208;2022-09-09T17:02:48;0.87;;;0.20;;
43224;SDS011;28834;48.720;9.208;2022-09-09T17:05:14;1.20;;;0.10;;
43224;SDS011;28834;48.720;9.208;2022-09-09T17:07:39;0.57;;;0.10;;
43224;SDS011;28834;48.720;9.208;2022-09-09T17:10:05;1.07;;;0.20;;